.
WxDataArchive / Data Records for 2009-04-21
2009-04-20 April 2009 2009-04-22

Data Records for Tuesday, 21 April 2009

Time	Temp	Chill	HIndex	Humid	Dewpt	 Wind 	HiWind	WindDir	Rain 	Barom 
-----	----	-----	------	-----	-----	------	------	-------	-----	----- 
00:00	41.9	41.9	41.9	91	39.5	1	4	248	0.00	29.686 
00:05	41.8	41.8	41.8	91	39.4	1	3	248	0.00	29.686 
00:10	41.6	41.6	41.6	91	39.2	1	4	248	0.00	29.686 
00:15	41.5	41.5	41.5	91	39.1	1	3	248	0.00	29.682 
00:20	41.3	41.3	41.3	91	38.9	0	2	248	0.00	29.682 
00:25	41.2	41.2	41.2	92	39.1	0	2	248	0.00	29.682 
00:30	41.2	41.2	41.2	92	39.1	0	3	248	0.00	29.680 
00:35	41.2	41.2	41.2	92	39.1	0	3	248	0.00	29.680 
00:40	41.2	41.2	41.2	92	39.1	1	3	248	0.00	29.680 
00:45	41.3	41.3	41.3	92	39.2	1	3	248	0.00	29.679 
00:50	41.3	41.3	41.3	92	39.2	1	3	248	0.00	29.679 
00:55	41.5	41.5	41.5	92	39.4	1	2	248	0.00	29.679 
01:00	41.5	41.5	41.5	92	39.4	1	4	248	0.00	29.673 
01:05	41.5	41.5	41.5	92	39.4	0	2	270	0.00	29.673 
01:10	41.6	41.6	41.6	92	39.5	1	4	248	0.00	29.673 
01:15	41.6	41.6	41.6	92	39.5	1	5	248	0.00	29.669 
01:20	41.6	41.6	41.6	92	39.5	2	6	248	0.00	29.669 
01:25	41.6	41.6	41.6	92	39.5	1	5	248	0.00	29.669 
01:30	41.6	41.6	41.6	92	39.5	1	5	248	0.00	29.666 
01:35	41.6	41.6	41.6	91	39.2	0	3	248	0.00	29.666 
01:40	41.6	41.6	41.6	91	39.2	0	2	248	0.00	29.666 
01:45	41.6	41.6	41.6	91	39.2	1	2	248	0.00	29.656 
01:50	41.5	41.5	41.5	91	39.1	1	2	248	0.00	29.656 
01:55	41.6	41.6	41.6	91	39.2	1	4	248	0.00	29.656 
02:00	41.6	41.6	41.6	91	39.2	1	3	248	0.00	29.654 
02:05	41.8	41.8	41.8	91	39.4	2	4	248	0.00	29.654 
02:10	41.9	41.9	41.9	91	39.5	1	5	248	0.00	29.654 
02:15	42.1	42.1	42.1	91	39.7	1	5	248	0.00	29.648 
02:20	42.1	42.1	42.1	91	39.7	1	4	248	0.00	29.648 
02:25	42.2	42.2	42.2	91	39.8	1	4	248	0.00	29.648 
02:30	42.2	42.2	42.2	91	39.8	2	5	248	0.00	29.642 
02:35	42.3	42.3	42.3	90	39.6	1	4	248	0.00	29.642 
02:40	42.3	42.3	42.3	90	39.6	1	6	248	0.00	29.642 
02:45	42.5	42.5	42.5	90	39.8	1	4	248	0.00	29.640 
02:50	42.5	42.5	42.5	90	39.8	2	9	248	0.00	29.640 
02:55	42.5	42.5	42.5	90	39.8	2	7	248	0.00	29.640 
03:00	42.6	42.6	42.6	90	39.9	2	5	248	0.00	29.630 
03:05	42.6	42.6	42.6	90	39.9	2	4	248	0.00	29.630 
03:10	42.6	42.6	42.6	90	39.9	1	4	270	0.00	29.630 
03:15	42.6	42.6	42.6	90	39.9	2	6	248	0.00	29.623 
03:20	42.6	42.6	42.6	90	39.9	1	4	248	0.00	29.623 
03:25	42.6	42.6	42.6	89	39.6	2	5	248	0.00	29.623 
03:30	42.6	42.6	42.6	89	39.6	3	9	248	0.00	29.620 
03:35	42.8	42.8	42.8	89	39.8	2	4	248	0.00	29.620 
03:40	42.6	42.6	42.6	88	39.3	3	6	248	0.00	29.620 
03:45	42.5	42.5	42.5	88	39.2	2	5	248	0.00	29.618 
03:50	42.5	42.5	42.5	88	39.2	3	6	248	0.00	29.618 
03:55	42.5	42.5	42.5	88	39.2	2	6	248	0.00	29.618 
04:00	42.5	42.5	42.5	88	39.2	2	5	248	0.00	29.617 
04:05	42.5	42.5	42.5	88	39.2	1	4	248	0.00	29.617 
04:10	42.5	42.5	42.5	88	39.2	1	3	248	0.00	29.617 
04:15	42.5	42.5	42.5	88	39.2	1	3	248	0.00	29.611 
04:20	42.5	42.5	42.5	88	39.2	2	5	248	0.00	29.611 
04:25	42.5	42.5	42.5	87	38.9	2	6	248	0.00	29.611 
04:30	42.5	42.5	42.5	87	38.9	2	7	270	0.00	29.613 
04:35	42.5	42.5	42.5	87	38.9	2	6	248	0.00	29.613 
04:40	42.5	42.5	42.5	87	38.9	2	6	248	0.00	29.613 
04:45	42.3	42.3	42.3	87	38.7	2	6	248	0.00	29.612 
04:50	42.3	42.3	42.3	87	38.7	1	3	248	0.00	29.612 
04:55	42.3	42.3	42.3	87	38.7	2	7	248	0.00	29.612 
05:00	42.2	42.2	42.2	87	38.6	1	4	248	0.00	29.609 
05:05	42.2	42.2	42.2	87	38.6	2	7	248	0.00	29.609 
05:10	42.2	42.2	42.2	86	38.3	2	6	248	0.00	29.609 
05:15	42.2	42.2	42.2	86	38.3	2	7	248	0.00	29.605 
05:20	42.2	42.2	42.2	86	38.3	2	6	248	0.00	29.605 
05:25	42.2	42.2	42.2	86	38.3	2	6	248	0.00	29.605 
05:30	42.2	42.2	42.2	86	38.3	3	7	248	0.00	29.603 
05:35	42.3	42.3	42.3	85	38.1	2	6	248	0.00	29.603 
05:40	42.2	42.2	42.2	85	38.0	2	5	248	0.00	29.603 
05:45	42.2	42.2	42.2	85	38.0	2	7	248	0.00	29.599 
05:50	42.2	42.2	42.2	85	38.0	1	7	248	0.00	29.599 
05:55	42.2	42.2	42.2	85	38.0	3	7	248	0.00	29.599 
06:00	42.2	42.2	42.2	85	38.0	1	5	225	0.00	29.588 
06:05	42.1	42.1	42.1	85	37.9	2	5	248	0.00	29.588 
06:10	42.1	42.1	42.1	86	38.2	2	5	248	0.00	29.588 
06:15	42.1	42.1	42.1	85	37.9	3	6	248	0.00	29.584 
06:20	42.1	42.1	42.1	86	38.2	2	5	248	0.00	29.584 
06:25	42.1	42.1	42.1	86	38.2	2	9	248	0.00	29.584 
06:30	42.1	42.1	42.1	86	38.2	3	5	248	0.00	29.586 
06:35	42.1	42.1	42.1	86	38.2	2	5	248	0.00	29.586 
06:40	41.9	41.9	41.9	86	38.0	1	3	248	0.00	29.586 
06:45	41.9	41.9	41.9	86	38.0	2	6	248	0.00	29.587 
06:50	41.9	41.9	41.9	85	37.7	1	5	225	0.00	29.587 
06:55	41.8	41.8	41.8	85	37.6	2	5	248	0.00	29.587 
07:00	41.8	41.8	41.8	85	37.6	2	5	270	0.00	29.587 
07:05	41.8	41.8	41.8	85	37.6	1	4	248	0.00	29.587 
07:10	41.8	41.8	41.8	85	37.6	1	6	225	0.00	29.587 
07:15	41.8	41.8	41.8	85	37.6	1	4	248	0.00	29.593 
07:20	41.8	41.8	41.8	85	37.6	1	5	248	0.00	29.593 
07:25	41.9	41.9	41.9	85	37.7	2	6	248	0.00	29.593 
07:30	41.9	41.9	41.9	85	37.7	2	5	248	0.00	29.594 
07:35	41.9	41.9	41.9	85	37.7	2	6	248	0.00	29.594 
07:40	41.9	41.9	41.9	86	38.0	3	6	248	0.00	29.594 
07:45	41.9	41.9	41.9	86	38.0	2	4	248	0.00	29.594 
07:50	41.9	41.9	41.9	87	38.3	2	4	248	0.00	29.594 
07:55	41.9	41.9	41.9	87	38.3	2	5	248	0.00	29.594 
08:00	41.9	41.9	41.9	86	38.0	2	5	248	0.00	29.596 
08:05	41.8	41.8	41.8	86	37.9	2	4	248	0.00	29.596 
08:10	41.8	41.8	41.8	86	37.9	1	4	270	0.00	29.596 
08:15	41.9	41.9	41.9	86	38.0	2	5	248	0.00	29.598 
08:20	42.1	42.1	42.1	86	38.2	1	4	248	0.00	29.598 
08:25	42.1	42.1	42.1	86	38.2	3	6	248	0.00	29.598 
08:30	42.2	42.2	42.2	86	38.3	2	5	248	0.00	29.597 
08:35	42.2	42.2	42.2	85	38.0	2	6	270	0.00	29.597 
08:40	42.3	42.3	42.3	85	38.1	3	6	248	0.00	29.597 
08:45	42.3	42.3	42.3	85	38.1	2	7	248	0.00	29.598 
08:50	42.5	42.5	42.5	85	38.3	2	4	248	0.00	29.598 
08:55	42.6	42.6	42.6	85	38.4	3	7	248	0.00	29.598 
09:00	42.8	42.8	42.8	84	38.3	3	9	248	0.00	29.598 
09:05	42.9	42.9	42.9	83	38.1	3	11	248	0.00	29.598 
09:10	43.1	43.1	43.1	83	38.3	2	4	248	0.00	29.598 
09:15	42.9	40.7	42.9	81	37.5	4	11	270	0.00	29.594 
09:20	42.9	40.7	42.9	81	37.5	4	9	248	0.00	29.594 
09:25	43.1	43.1	43.1	81	37.7	2	6	248	0.00	29.594 
09:30	43.9	43.9	43.9	80	38.1	3	7	248	0.00	29.593 
09:35	44.3	44.3	44.3	79	38.2	3	7	248	0.00	29.593 
09:40	44.3	40.9	44.3	75	36.9	6	12	270	0.00	29.593 
09:45	44.2	44.2	44.2	76	37.1	3	9	225	0.00	29.593 
09:50	43.8	40.9	43.8	74	36.1	5	14	270	0.00	29.593 
09:55	43.3	40.3	43.3	73	35.2	5	11	248	0.00	29.593 
10:00	43.2	40.2	43.2	75	35.8	5	10	248	0.00	29.601 
10:05	41.8	41.8	41.8	78	35.5	3	7	270	0.01	29.601 
10:10	40.3	40.3	40.3	82	35.2	3	6	292	0.00	29.601 
10:15	39.9	39.9	39.9	85	35.8	2	4	270	0.00	29.612 
10:20	40.3	40.3	40.3	88	37.0	2	4	248	0.00	29.612 
10:25	40.3	40.3	40.3	88	37.0	3	6	270	0.00	29.612 
10:30	40.5	40.5	40.5	88	37.2	2	6	248	0.00	29.610 
10:35	40.3	40.3	40.3	87	36.7	3	6	248	0.00	29.610 
10:40	40.1	37.4	40.1	87	36.5	4	9	248	0.00	29.610 
10:45	39.9	39.9	39.9	87	36.4	3	7	248	0.00	29.613 
10:50	40.1	40.1	40.1	87	36.5	2	5	248	0.00	29.613 
10:55	40.3	40.3	40.3	88	37.0	2	7	248	0.00	29.613 
11:00	41.1	41.1	41.1	87	37.5	3	5	248	0.00	29.612 
11:05	41.5	41.5	41.5	85	37.3	2	5	270	0.00	29.612 
11:10	41.8	41.8	41.8	83	37.0	3	9	270	0.00	29.612 
11:15	41.9	41.9	41.9	82	36.8	2	6	270	0.00	29.611 
11:20	41.9	41.9	41.9	80	36.2	3	6	270	0.00	29.611 
11:25	42.5	40.2	42.5	81	37.1	4	10	248	0.00	29.611 
11:30	42.6	40.3	42.6	76	35.6	4	10	270	0.00	29.610 
11:35	42.6	40.3	42.6	74	34.9	4	12	248	0.00	29.610 
11:40	42.6	40.3	42.6	75	35.2	4	9	248	0.00	29.610 
11:45	42.6	42.6	42.6	75	35.2	3	8	248	0.00	29.611 
11:50	42.6	40.3	42.6	73	34.6	4	9	248	0.00	29.611 
11:55	42.8	40.6	42.8	73	34.8	4	10	270	0.00	29.611 
12:00	43.5	41.4	43.5	73	35.4	4	12	270	0.00	29.609 
12:05	43.9	41.8	43.9	70	34.8	4	9	270	0.00	29.609 
12:10	43.8	43.8	43.8	71	35.0	3	6	248	0.00	29.609 
12:15	43.1	40.9	43.1	76	36.1	4	9	270	0.00	29.611 
12:20	43.1	43.1	43.1	82	38.0	3	6	270	0.01	29.611 
12:25	43.8	43.8	43.8	82	38.7	2	7	248	0.00	29.611 
12:30	43.9	43.9	43.9	79	37.8	3	5	248	0.00	29.606 
12:35	44.2	42.2	44.2	77	37.5	4	15	270	0.00	29.606 
12:40	44.9	44.9	44.9	76	37.8	3	10	270	0.00	29.606 
12:45	44.6	41.9	44.6	72	36.1	5	11	248	0.00	29.604 
12:50	44.2	42.2	44.2	76	37.1	4	10	270	0.00	29.604 
12:55	44.5	44.5	44.5	82	39.4	2	6	248	0.00	29.604 
13:00	45.1	45.1	45.1	76	38.0	2	6	248	0.00	29.599 
13:05	46.0	44.2	46.0	71	37.1	4	10	270	0.00	29.599 
13:10	45.7	42.5	45.7	66	35.0	6	14	270	0.00	29.599 
13:15	45.7	43.2	45.7	67	35.4	5	13	248	0.00	29.593 
13:20	45.8	44.0	45.8	66	35.1	4	11	270	0.00	29.593 
13:25	46.2	43.8	46.2	66	35.5	5	13	270	0.00	29.593 
13:30	46.8	44.5	46.8	62	34.5	5	16	248	0.00	29.594 
13:35	46.8	44.5	46.8	62	34.5	5	12	270	0.00	29.594 
13:40	46.8	45.2	46.8	65	35.7	4	10	248	0.00	29.594 
13:45	46.4	44.7	46.4	65	35.3	4	10	270	0.00	29.592 
13:50	44.5	41.1	44.5	73	36.4	6	13	270	0.01	29.592 
13:55	44.8	44.8	44.8	83	40.0	3	8	270	0.00	29.592 
14:00	44.9	42.2	44.9	77	38.1	5	15	270	0.00	29.593 
14:05	46.0	42.9	46.0	72	37.5	6	14	270	0.00	29.593 
14:10	46.5	43.5	46.5	68	36.5	6	11	248	0.00	29.593 
14:15	47.1	44.8	47.1	65	35.9	5	11	270	0.00	29.591 
14:20	47.1	45.5	47.1	67	36.7	4	11	270	0.00	29.591 
14:25	47.1	44.2	47.1	63	35.2	6	14	270	0.00	29.591 
14:30	47.3	45.0	47.3	63	35.4	5	10	270	0.00	29.592 
14:35	47.0	44.1	47.0	64	35.5	6	15	248	0.00	29.592 
14:40	46.8	43.9	46.8	64	35.3	6	12	270	0.00	29.592 
14:45	46.7	44.3	46.7	63	34.8	5	13	270	0.00	29.597 
14:50	46.5	44.1	46.5	64	35.0	5	11	270	0.00	29.597 
14:55	46.1	44.4	46.1	65	35.0	4	10	270	0.00	29.597 
15:00	45.7	42.5	45.7	66	35.0	6	15	270	0.00	29.603 
15:05	45.2	40.9	45.2	67	34.9	8	17	270	0.00	29.603 
15:10	45.2	42.6	45.2	66	34.5	5	11	248	0.00	29.603 
15:15	45.1	41.8	45.1	65	34.0	6	11	248	0.00	29.607 
15:20	45.1	42.5	45.1	65	34.0	5	14	248	0.00	29.607 
15:25	45.1	43.2	45.1	65	34.0	4	12	270	0.00	29.607 
15:30	45.4	43.6	45.4	66	34.7	4	11	248	0.00	29.607 
15:35	45.7	43.9	45.7	67	35.4	4	10	270	0.00	29.607 
15:40	45.5	43.7	45.5	68	35.6	4	10	248	0.00	29.607 
15:45	45.5	42.9	45.5	69	35.9	5	12	270	0.00	29.611 
15:50	45.2	43.3	45.2	69	35.6	4	9	270	0.00	29.611 
15:55	45.2	43.3	45.2	71	36.4	4	13	270	0.00	29.611 
16:00	45.7	43.2	45.7	67	35.4	5	19	270	0.00	29.607 
16:05	45.7	43.2	45.7	65	34.6	5	12	270	0.00	29.607 
16:10	45.7	43.9	45.7	65	34.6	4	7	270	0.00	29.607 
16:15	44.9	43.0	44.9	71	36.1	4	11	270	0.00	29.620 
16:20	44.1	42.1	44.1	76	37.0	4	10	270	0.00	29.620 
16:25	43.9	41.8	43.9	78	37.5	4	10	248	0.00	29.620 
16:30	43.3	43.3	43.3	81	37.9	3	9	270	0.00	29.622 
16:35	43.1	40.9	43.1	83	38.3	4	10	248	0.00	29.622 
16:40	43.2	43.2	43.2	83	38.4	3	6	248	0.00	29.622 
16:45	43.3	43.3	43.3	82	38.2	3	7	248	0.00	29.626 
16:50	43.3	43.3	43.3	81	37.9	3	7	270	0.00	29.626 
16:55	43.5	40.6	43.5	81	38.1	5	13	270	0.01	29.626 
17:00	43.5	41.4	43.5	80	37.7	4	7	270	0.00	29.628 
17:05	42.8	39.1	42.8	81	37.4	6	13	248	0.00	29.628 
17:10	42.9	42.9	42.9	82	37.8	3	8	248	0.00	29.628 
17:15	43.3	43.3	43.3	83	38.5	3	6	270	0.00	29.634 
17:20	43.5	43.5	43.5	82	38.4	3	9	248	0.00	29.634 
17:25	43.5	41.4	43.5	80	37.7	4	9	270	0.00	29.634 
17:30	43.8	43.8	43.8	79	37.7	3	6	270	0.00	29.642 
17:35	43.3	43.3	43.3	80	37.6	3	6	248	0.00	29.642 
17:40	43.1	43.1	43.1	81	37.7	2	5	270	0.00	29.642 
17:45	42.9	42.9	42.9	82	37.8	2	7	270	0.00	29.652 
17:50	42.8	42.8	42.8	84	38.3	2	6	292	0.00	29.652 
17:55	42.6	42.6	42.6	84	38.1	3	5	270	0.00	29.652 
18:00	42.5	42.5	42.5	84	38.0	2	5	248	0.00	29.658 
18:05	42.5	42.5	42.5	84	38.0	2	5	0	0.00	29.658 
18:10	42.3	42.3	42.3	83	37.5	3	5	270	0.00	29.658 
18:15	41.9	41.9	41.9	82	36.8	3	7	270	0.00	29.669 
18:20	41.6	41.6	41.6	84	37.1	2	6	248	0.00	29.669 
18:25	41.5	41.5	41.5	86	37.6	2	4	248	0.00	29.669 
18:30	41.5	41.5	41.5	86	37.6	2	5	270	0.00	29.674 
18:35	41.6	41.6	41.6	86	37.7	2	7	270	0.00	29.674 
18:40	41.8	41.8	41.8	86	37.9	3	5	248	0.00	29.674 
18:45	41.6	41.6	41.6	85	37.4	2	4	292	0.00	29.677 
18:50	41.6	41.6	41.6	85	37.4	3	6	292	0.00	29.677 
18:55	41.5	41.5	41.5	84	37.0	3	7	270	0.00	29.677 
19:00	41.5	41.5	41.5	84	37.0	3	5	270	0.00	29.682 
19:05	41.3	41.3	41.3	84	36.8	3	5	270	0.00	29.682 
19:10	41.2	41.2	41.2	85	37.0	1	3	270	0.00	29.682 
19:15	41.1	41.1	41.1	86	37.2	2	4	270	0.00	29.688 
19:20	40.8	40.8	40.8	86	36.9	2	4	270	0.00	29.688 
19:25	40.8	40.8	40.8	87	37.2	1	4	248	0.00	29.688 
19:30	40.6	40.6	40.6	86	36.7	2	6	248	0.00	29.689 
19:35	40.8	40.8	40.8	85	36.6	2	12	248	0.00	29.689 
19:40	40.8	40.8	40.8	84	36.3	2	6	270	0.00	29.689 
19:45	40.9	40.9	40.9	83	36.1	3	6	270	0.00	29.691 
19:50	40.9	38.4	40.9	83	36.1	4	10	270	0.00	29.691 
19:55	40.9	40.9	40.9	82	35.8	3	8	270	0.00	29.691 
20:00	40.9	40.9	40.9	83	36.1	2	4	270	0.00	29.695 
20:05	40.9	40.9	40.9	83	36.1	2	6	248	0.00	29.695 
20:10	40.9	40.9	40.9	83	36.1	2	4	248	0.00	29.695 
20:15	40.6	37.2	40.6	83	35.8	5	9	270	0.00	29.702 
20:20	40.2	37.5	40.2	83	35.5	4	11	270	0.01	29.702 
20:25	39.9	39.9	39.9	83	35.2	3	6	270	0.00	29.702 
20:30	39.8	39.8	39.8	84	35.4	2	5	248	0.00	29.708 
20:35	39.6	39.6	39.6	84	35.2	3	4	270	0.00	29.708 
20:40	39.6	39.6	39.6	84	35.2	2	7	270	0.00	29.708 
20:45	39.6	39.6	39.6	84	35.2	3	6	248	0.00	29.712 
20:50	39.6	39.6	39.6	84	35.2	2	3	248	0.00	29.712 
20:55	39.6	39.6	39.6	85	35.5	2	5	248	0.00	29.712 
21:00	39.8	39.8	39.8	85	35.7	2	4	270	0.00	29.719 
21:05	39.8	39.8	39.8	86	36.0	2	6	248	0.00	29.719 
21:10	39.2	39.2	39.2	85	35.1	3	10	270	0.00	29.719 
21:15	39.1	39.1	39.1	86	35.3	2	10	270	0.00	29.727 
21:20	38.8	38.8	38.8	87	35.3	1	3	270	0.00	29.727 
21:25	38.6	38.6	38.6	88	35.4	1	4	270	0.01	29.727 
21:30	38.6	38.6	38.6	89	35.6	1	2	270	0.00	29.727 
21:35	38.8	38.8	38.8	89	35.8	1	4	248	0.00	29.727 
21:40	38.9	38.9	38.9	90	36.2	1	5	338	0.00	29.727 
21:45	39.1	39.1	39.1	89	36.1	3	6	270	0.00	29.734 
21:50	39.2	39.2	39.2	89	36.2	2	4	248	0.00	29.734 
21:55	39.3	39.3	39.3	88	36.0	2	5	248	0.00	29.734 
22:00	39.5	39.5	39.5	87	36.0	2	5	248	0.00	29.737 
22:05	39.5	39.5	39.5	87	36.0	2	5	225	0.00	29.737 
22:10	39.5	39.5	39.5	86	35.7	3	6	248	0.00	29.737 
22:15	39.6	39.6	39.6	85	35.5	3	4	270	0.00	29.740 
22:20	39.6	39.6	39.6	84	35.2	3	6	270	0.00	29.740 
22:25	39.5	39.5	39.5	84	35.1	2	5	270	0.00	29.740 
22:30	39.5	39.5	39.5	84	35.1	2	9	270	0.00	29.741 
22:35	39.3	39.3	39.3	84	34.9	2	6	248	0.00	29.741 
22:40	39.2	39.2	39.2	84	34.8	2	5	270	0.00	29.741 
22:45	39.1	39.1	39.1	84	34.7	2	4	270	0.00	29.741 
22:50	38.9	38.9	38.9	84	34.5	2	6	270	0.00	29.741 
22:55	38.9	38.9	38.9	84	34.5	2	3	248	0.00	29.741 
23:00	38.8	38.8	38.8	84	34.4	2	5	248	0.00	29.740 
23:05	38.8	38.8	38.8	84	34.4	2	3	248	0.00	29.740 
23:10	38.8	38.8	38.8	84	34.4	2	5	248	0.00	29.740 
23:15	38.8	38.8	38.8	84	34.4	3	6	270	0.00	29.740 
23:20	38.9	38.9	38.9	84	34.5	2	4	248	0.00	29.740 
23:25	38.9	38.9	38.9	84	34.5	2	6	248	0.00	29.740 
23:30	39.1	39.1	39.1	84	34.7	1	2	248	0.00	29.739 
23:35	39.1	39.1	39.1	84	34.7	2	4	248	0.00	29.739 
23:40	39.1	39.1	39.1	84	34.7	1	6	248	0.00	29.739 
23:45	38.9	38.9	38.9	83	34.2	1	4	248	0.00	29.739 
23:50	38.9	38.9	38.9	83	34.2	1	4	248	0.00	29.739 
23:55	38.9	38.9	38.9	83	34.2	1	4	248	0.00	29.739 

CoCoRaHS
IN-AL-39
A2 Web Hosting
Creative Commons License
GoDaddy
search engine by freefind advanced

loaded 2018-11-15 17:49:51 • last modified 2010-11-18 10:43:29
Privacy PolicyDisclaimer
• wx.awcolley.com is powered by PmWiki v.2002016 •
• all content (unless otherwise noted) © 2018 A W Colley